Time;durP1;ratioP1;P1;durP2;ratioP2;P2;SDS_P1;SDS_P2;PMS_P1;PMS_P2;Temp;Humidity;BMP_temperature;BMP_pressure;BME280_temperature;BME280_humidity;BME280_pressure;Samples;Min_cycle;Max_cycle;Signal;HPM_P1;HPM_P2
2021/10/21 00:00:21;;;;;;;114.25;77.65;;;231.00;2252.80;;;;;;5094607;28;20032;-80
2021/10/21 00:02:46;;;;;;;109.63;76.10;;;230.90;2252.80;;;;;;5095712;28;20412;-80
2021/10/21 00:05:12;;;;;;;107.75;71.47;;;230.80;2252.80;;;;;;5094544;28;20036;-80
2021/10/21 00:07:38;;;;;;;121.63;85.90;;;230.80;2252.80;;;;;;5094806;28;20031;-80
2021/10/21 00:10:04;;;;;;;136.82;92.47;;;230.70;2252.80;;;;;;5095713;28;20066;-81
2021/10/21 00:12:31;;;;;;;137.20;88.97;;;230.50;2252.80;;;;;;5094444;28;20089;-80
2021/10/21 00:14:59;;;;;;;114.88;80.60;;;230.60;2252.80;;;;;;5094568;28;20026;-81
2021/10/21 00:17:25;;;;;;;111.10;79.63;;;230.40;2252.80;;;;;;5094686;28;20042;-80
2021/10/21 00:19:51;;;;;;;116.28;75.68;;;230.60;2252.80;;;;;;5094192;28;20379;-82
2021/10/21 00:22:18;;;;;;;128.13;85.97;;;230.80;2252.80;;;;;;5094299;28;20020;-80
2021/10/21 00:24:44;;;;;;;118.15;82.57;;;230.70;2252.80;;;;;;5094130;28;20028;-80
2021/10/21 00:27:10;;;;;;;128.30;87.93;;;230.80;2252.80;;;;;;5093475;28;20035;-80
2021/10/21 00:29:36;;;;;;;124.38;87.57;;;230.80;2252.80;;;;;;5094253;28;20024;-80
2021/10/21 00:32:02;;;;;;;127.65;85.85;;;230.60;2252.80;;;;;;5093954;28;20069;-79
2021/10/21 00:34:28;;;;;;;111.13;78.35;;;230.70;2252.80;;;;;;5093753;28;20413;-79
2021/10/21 00:36:54;;;;;;;115.88;77.72;;;230.50;2252.80;;;;;;5094141;28;20020;-80
2021/10/21 00:39:19;;;;;;;98.07;68.60;;;230.70;2252.80;;;;;;5093812;28;20020;-80
2021/10/21 00:41:45;;;;;;;90.32;60.95;;;230.70;2252.80;;;;;;5094120;28;20058;-80
2021/10/21 00:44:14;;;;;;;92.55;64.68;;;230.50;2252.80;;;;;;5094986;28;20133;-80
2021/10/21 00:46:41;;;;;;;91.15;62.72;;;230.50;2252.80;;;;;;5093675;28;20024;-80
2021/10/21 00:49:08;;;;;;;88.90;60.45;;;230.40;2252.80;;;;;;5094824;28;20379;-80
2021/10/21 00:51:36;;;;;;;84.90;56.45;;;205.60;2252.80;;;;;;5093828;28;20024;-81
2021/10/21 00:54:04;;;;;;;83.95;59.10;;;230.40;2252.80;;;;;;5093666;28;20096;-81
2021/10/21 00:56:30;;;;;;;80.78;55.28;;;205.60;2252.80;;;;;;5093818;28;20463;-82
2021/10/21 00:58:56;;;;;;;72.32;52.92;;;205.60;2252.80;;;;;;5093681;28;20024;-81
2021/10/21 01:01:23;;;;;;;76.38;54.55;;;205.60;2252.80;;;;;;5093429;28;20027;-80
2021/10/21 01:03:52;;;;;;;80.65;56.17;;;205.60;2252.80;;;;;;5093621;28;20122;-81
2021/10/21 01:06:19;;;;;;;86.72;58.58;;;205.70;2252.80;;;;;;5093503;28;20467;-81
2021/10/21 01:08:45;;;;;;;76.38;53.10;;;205.60;2252.80;;;;;;5093399;28;20408;-81
2021/10/21 01:11:14;;;;;;;81.55;57.38;;;205.60;2252.80;;;;;;5093497;28;20024;-81
2021/10/21 01:13:40;;;;;;;78.40;55.60;;;205.70;2252.80;;;;;;5093168;28;20422;-80
2021/10/21 01:16:10;;;;;;;79.70;57.88;;;205.70;2252.80;;;;;;5093412;28;20024;-81
2021/10/21 01:18:36;;;;;;;79.55;53.97;;;205.50;2252.80;;;;;;5093298;28;20024;-81
2021/10/21 01:21:04;;;;;;;90.07;61.05;;;205.70;2252.80;;;;;;5094349;28;20467;-81
2021/10/21 01:23:30;;;;;;;95.45;66.63;;;205.70;2252.80;;;;;;5093139;28;20032;-81
2021/10/21 01:25:56;;;;;;;90.28;60.40;;;230.60;2252.80;;;;;;5093213;28;20472;-81
2021/10/21 01:28:22;;;;;;;92.53;61.85;;;205.60;2252.80;;;;;;5092822;28;20020;-81
2021/10/21 01:30:48;;;;;;;82.03;56.35;;;205.70;2252.80;;;;;;5093109;28;20496;-81
2021/10/21 01:33:14;;;;;;;87.78;58.28;;;205.40;2252.80;;;;;;5093122;28;20395;-80
2021/10/21 01:35:40;;;;;;;78.72;51.13;;;205.50;2252.80;;;;;;5092319;28;20043;-80
2021/10/21 01:38:06;;;;;;;70.20;49.72;;;205.30;2252.80;;;;;;5092837;28;20031;-81
2021/10/21 01:40:32;;;;;;;71.00;47.15;;;205.40;2252.80;;;;;;5093241;28;20028;-81
2021/10/21 01:42:58;;;;;;;70.57;48.05;;;205.40;2252.80;;;;;;5092645;28;20109;-81
2021/10/21 01:45:29;;;;;;;69.05;46.88;;;205.30;2252.80;;;;;;5092809;28;20043;-80
2021/10/21 01:47:56;;;;;;;64.18;44.70;;;205.50;2252.80;;;;;;5092825;28;20115;-81
2021/10/21 01:50:23;;;;;;;70.93;45.30;;;205.30;2252.80;;;;;;5092589;28;20027;-81
2021/10/21 01:52:50;;;;;;;122.25;66.30;;;205.40;2252.80;;;;;;5092751;28;20487;-81
2021/10/21 01:55:17;;;;;;;84.05;51.65;;;205.40;2252.80;;;;;;5092702;28;20520;-81
2021/10/21 01:57:43;;;;;;;62.75;44.90;;;205.50;2252.80;;;;;;5092442;28;20020;-81
2021/10/21 02:00:13;;;;;;;57.38;39.28;;;205.00;2252.80;;;;;;5093032;28;20502;-81
2021/10/21 02:02:39;;;;;;;64.45;42.67;;;205.20;2252.80;;;;;;5114946;28;20016;-81
2021/10/21 02:05:05;;;;;;;60.13;42.47;;;205.10;2252.80;;;;;;5118418;28;20076;-81
2021/10/21 02:07:32;;;;;;;64.57;43.55;;;205.40;2252.80;;;;;;5115147;28;20015;-81
2021/10/21 02:09:58;;;;;;;55.58;41.33;;;205.40;2252.80;;;;;;5092493;28;20028;-81
2021/10/21 02:12:24;;;;;;;54.55;38.92;;;205.00;2252.80;;;;;;5093968;28;20513;-81
2021/10/21 02:14:50;;;;;;;58.42;41.25;;;205.20;2252.80;;;;;;5093020;28;20474;-81
2021/10/21 02:17:16;;;;;;;60.28;44.13;;;205.20;2252.80;;;;;;5092233;28;20028;-81
2021/10/21 02:19:42;;;;;;;60.45;44.58;;;205.30;2252.80;;;;;;5092443;28;20028;-81
2021/10/21 02:22:07;;;;;;;66.03;47.00;;;205.20;2252.80;;;;;;5092452;28;20026;-81
2021/10/21 02:24:33;;;;;;;60.58;46.00;;;205.20;2252.80;;;;;;5092078;28;20032;-81
2021/10/21 02:26:59;;;;;;;61.13;44.55;;;205.00;2252.80;;;;;;5092418;28;20490;-81
2021/10/21 02:29:25;;;;;;;70.28;50.03;;;205.00;2252.80;;;;;;5092379;28;20020;-81
2021/10/21 02:31:51;;;;;;;62.10;44.22;;;204.80;2252.80;;;;;;5092283;28;20471;-81
2021/10/21 02:34:17;;;;;;;64.32;46.78;;;204.80;2252.80;;;;;;5092123;28;20114;-81
2021/10/21 02:36:43;;;;;;;83.85;52.28;;;205.00;2252.80;;;;;;5092316;28;20055;-80
2021/10/21 02:39:09;;;;;;;79.03;50.05;;;205.00;2252.80;;;;;;5093394;28;20028;-81
2021/10/21 02:41:34;;;;;;;90.57;56.40;;;205.00;2252.80;;;;;;5092253;28;20161;-81
2021/10/21 02:44:00;;;;;;;65.43;43.92;;;205.00;2252.80;;;;;;5092225;28;20115;-81
2021/10/21 02:46:26;;;;;;;69.03;46.60;;;204.90;2252.80;;;;;;5091942;28;20040;-81
2021/10/21 02:48:52;;;;;;;68.22;44.45;;;205.00;2252.80;;;;;;5093804;28;20081;-81
2021/10/21 02:51:17;;;;;;;61.05;41.97;;;204.80;2252.80;;;;;;5095426;28;20028;-81
2021/10/21 02:53:43;;;;;;;57.50;40.53;;;204.90;2252.80;;;;;;5095893;28;20028;-81
2021/10/21 02:56:09;;;;;;;62.85;41.72;;;204.90;2252.80;;;;;;5096206;28;20024;-81
2021/10/21 02:58:35;;;;;;;60.10;39.95;;;205.00;2252.80;;;;;;5096739;28;20523;-81
2021/10/21 03:01:01;;;;;;;62.55;45.65;;;204.90;2252.80;;;;;;5096074;28;20028;-81
2021/10/21 03:03:26;;;;;;;58.95;41.92;;;205.00;2252.80;;;;;;5095882;28;20031;-80
2021/10/21 03:05:52;;;;;;;60.10;41.13;;;205.00;2252.80;;;;;;5095534;28;20028;-81
2021/10/21 03:08:18;;;;;;;55.35;38.25;;;180.10;2252.80;;;;;;5095864;28;20035;-81
2021/10/21 03:10:44;;;;;;;58.45;42.35;;;204.80;2252.80;;;;;;5095835;28;20024;-81
2021/10/21 03:13:10;;;;;;;51.60;37.10;;;180.10;2252.80;;;;;;5096880;28;20384;-81
2021/10/21 03:15:35;;;;;;;57.33;38.33;;;180.10;2252.80;;;;;;5095773;28;20027;-82
2021/10/21 03:18:01;;;;;;;161.85;82.25;;;180.10;2252.80;;;;;;5095711;28;20027;-81
2021/10/21 03:20:27;;;;;;;117.57;66.80;;;204.80;2252.80;;;;;;5096545;28;20090;-81
2021/10/21 03:22:53;;;;;;;75.63;46.75;;;180.10;2252.80;;;;;;5095462;28;20032;-81
2021/10/21 03:25:19;;;;;;;75.07;47.75;;;180.10;2252.80;;;;;;5095502;28;20035;-81
2021/10/21 03:27:45;;;;;;;66.03;44.13;;;179.90;2252.80;;;;;;5095218;28;20387;-81
2021/10/21 03:30:11;;;;;;;61.42;41.65;;;179.90;2252.80;;;;;;5095507;28;20115;-82
2021/10/21 03:32:38;;;;;;;70.57;44.88;;;179.70;2252.80;;;;;;5095367;28;20031;-81
2021/10/21 03:35:06;;;;;;;66.57;43.58;;;179.80;2252.80;;;;;;5096347;28;20048;-80
2021/10/21 03:37:32;;;;;;;80.53;50.05;;;179.90;2252.80;;;;;;5095361;28;20020;-80
2021/10/21 03:39:57;;;;;;;68.78;45.67;;;179.70;2252.80;;;;;;5096520;28;20099;-80
2021/10/21 03:42:24;;;;;;;67.03;45.30;;;179.70;2252.80;;;;;;5094847;28;20024;-81
2021/10/21 03:44:50;;;;;;;70.30;46.50;;;179.90;2252.80;;;;;;5095219;28;20438;-81
2021/10/21 03:47:17;;;;;;;65.35;42.05;;;179.50;2252.80;;;;;;5095132;28;20032;-80
2021/10/21 03:49:43;;;;;;;78.63;52.67;;;179.60;2252.80;;;;;;5094746;28;20379;-82
2021/10/21 03:52:08;;;;;;;86.00;59.40;;;179.70;2252.80;;;;;;5094931;28;20024;-81
2021/10/21 03:54:34;;;;;;;82.63;62.65;;;179.70;2252.80;;;;;;5096018;28;20039;-81
2021/10/21 03:57:00;;;;;;;80.57;55.28;;;179.60;2252.80;;;;;;5095000;28;20031;-81
2021/10/21 03:59:27;;;;;;;90.35;59.05;;;179.60;2252.80;;;;;;5094951;28;20477;-81
2021/10/21 04:01:54;;;;;;;85.97;54.00;;;179.30;2252.80;;;;;;5093277;28;20035;-82
2021/10/21 04:04:20;;;;;;;84.32;52.47;;;179.50;2252.80;;;;;;5094811;28;20024;-81
2021/10/21 04:06:46;;;;;;;83.13;53.30;;;179.20;2252.80;;;;;;5094728;28;20028;-81
2021/10/21 04:09:13;;;;;;;87.38;55.17;;;179.30;2252.80;;;;;;5094483;28;20031;-82
2021/10/21 04:11:38;;;;;;;70.68;48.42;;;179.40;2252.80;;;;;;5095860;28;20036;-81
2021/10/21 04:14:04;;;;;;;73.25;51.65;;;154.50;2252.80;;;;;;5096205;28;20032;-81
2021/10/21 04:16:30;;;;;;;70.70;52.15;;;154.50;2252.80;;;;;;5094351;28;20486;-82
2021/10/21 04:18:56;;;;;;;82.35;54.97;;;179.30;2252.80;;;;;;5094653;28;20110;-82
2021/10/21 04:21:22;;;;;;;71.95;53.28;;;179.30;2252.80;;;;;;5094588;28;20020;-81
2021/10/21 04:23:48;;;;;;;73.57;52.72;;;179.30;2252.80;;;;;;5094301;28;20028;-81
2021/10/21 04:26:14;;;;;;;69.82;46.47;;;179.40;2252.80;;;;;;5095609;28;20536;-81
2021/10/21 04:28:40;;;;;;;72.15;47.58;;;154.50;2252.80;;;;;;5096195;28;20077;-81
2021/10/21 04:31:06;;;;;;;72.40;47.28;;;179.30;2252.80;;;;;;5094061;28;20023;-81
2021/10/21 04:33:32;;;;;;;62.97;45.83;;;179.30;2252.80;;;;;;5094710;28;20032;-80
2021/10/21 04:35:58;;;;;;;69.82;52.08;;;179.40;2252.80;;;;;;5093889;28;20048;-79
2021/10/21 04:38:24;;;;;;;76.28;61.55;;;179.20;2252.80;;;;;;5094064;28;20431;-78
2021/10/21 04:40:50;;;;;;;92.35;64.75;;;154.50;2252.80;;;;;;5094450;28;20364;-82
2021/10/21 04:43:16;;;;;;;83.47;66.18;;;179.20;2252.80;;;;;;5094009;28;20459;-79
2021/10/21 04:45:42;;;;;;;84.63;61.50;;;154.50;2252.80;;;;;;5094820;28;20028;-80
2021/10/21 04:48:07;;;;;;;80.38;56.80;;;179.20;2252.80;;;;;;5094000;28;20024;-80
2021/10/21 04:50:33;;;;;;;78.93;53.17;;;154.40;2252.80;;;;;;5093531;28;20387;-80
2021/10/21 04:52:59;;;;;;;73.63;52.35;;;179.20;2252.80;;;;;;5094963;28;20081;-81
2021/10/21 04:55:26;;;;;;;65.35;51.65;;;179.20;2252.80;;;;;;5093845;28;20032;-81
2021/10/21 04:57:52;;;;;;;74.15;54.60;;;179.30;2252.80;;;;;;5093689;28;20031;-80
2021/10/21 05:00:19;;;;;;;66.93;50.90;;;179.30;2252.80;;;;;;5093673;28;20020;-79
2021/10/21 05:02:46;;;;;;;95.20;65.38;;;179.30;2252.80;;;;;;5093641;28;20032;-79
2021/10/21 05:05:12;;;;;;;89.82;65.07;;;154.50;2252.80;;;;;;5093342;28;20460;-79
2021/10/21 05:07:39;;;;;;;81.10;58.35;;;154.50;2252.80;;;;;;5093581;28;20086;-79
2021/10/21 05:10:05;;;;;;;132.48;84.78;;;179.30;2252.80;;;;;;5093520;28;20028;-80
2021/10/21 05:12:32;;;;;;;119.18;81.07;;;154.40;2252.80;;;;;;5094239;28;20028;-79
2021/10/21 05:14:58;;;;;;;127.65;96.93;;;154.40;2252.80;;;;;;5093688;28;20024;-79
2021/10/21 05:17:24;;;;;;;108.07;77.22;;;154.40;2252.80;;;;;;5093719;28;20392;-80
2021/10/21 05:19:50;;;;;;;126.78;84.72;;;154.50;2252.80;;;;;;5093098;28;20460;-78
2021/10/21 05:22:16;;;;;;;146.13;101.75;;;154.20;2252.80;;;;;;5093306;28;20031;-80
2021/10/21 05:24:42;;;;;;;93.80;69.13;;;154.20;2252.80;;;;;;5094605;28;20028;-80
2021/10/21 05:27:12;;;;;;;99.50;64.80;;;154.30;2252.80;;;;;;5093140;28;20380;-79
2021/10/21 05:29:38;;;;;;;90.35;60.22;;;154.40;2252.80;;;;;;5093383;28;20059;-80
2021/10/21 05:32:07;;;;;;;96.78;64.43;;;154.50;2252.80;;;;;;5093249;28;20116;-78
2021/10/21 05:34:38;;;;;;;130.85;91.68;;;179.20;2252.80;;;;;;5093728;28;20535;-79
2021/10/21 05:37:06;;;;;;;132.60;89.45;;;154.50;2252.80;;;;;;5094523;28;20020;-80
2021/10/21 05:39:32;;;;;;;108.75;66.15;;;179.30;2252.80;;;;;;5094181;28;20028;-79
2021/10/21 05:41:58;;;;;;;108.13;75.45;;;179.50;2252.80;;;;;;5093214;28;20024;-82
2021/10/21 05:44:25;;;;;;;215.77;153.88;;;179.70;2252.80;;;;;;5093039;28;20119;-82
2021/10/21 05:46:52;;;;;;;164.05;122.32;;;179.60;2252.80;;;;;;5092740;28;20035;-81
2021/10/21 05:49:19;;;;;;;199.10;145.55;;;179.30;2252.80;;;;;;5093146;28;20024;-80
2021/10/21 05:51:45;;;;;;;154.95;107.80;;;154.50;2252.80;;;;;;5092889;28;20383;-79
2021/10/21 05:54:11;;;;;;;165.70;117.13;;;154.40;2252.80;;;;;;5092560;28;20028;-80
2021/10/21 05:56:37;;;;;;;235.02;164.30;;;154.50;2252.80;;;;;;5092647;28;20429;-79
2021/10/21 05:59:02;;;;;;;176.35;125.15;;;179.20;2252.80;;;;;;5092839;28;20016;-79
2021/10/21 06:01:28;;;;;;;151.43;108.75;;;179.20;2252.80;;;;;;5092633;28;20028;-82
2021/10/21 06:03:54;;;;;;;380.23;258.13;;;179.40;2252.80;;;;;;5092764;28;20403;-81
2021/10/21 06:06:20;;;;;;;241.23;159.15;;;179.20;2252.80;;;;;;5095309;28;20101;-80
2021/10/21 06:08:46;;;;;;;185.00;117.55;;;179.40;2252.80;;;;;;5116840;28;20032;-77
2021/10/21 06:11:12;;;;;;;176.25;113.50;;;179.40;2252.80;;;;;;5094798;28;20073;-80
2021/10/21 06:13:39;;;;;;;269.17;185.70;;;179.60;2252.80;;;;;;5092649;28;20039;-79
2021/10/21 06:16:05;;;;;;;176.40;115.90;;;179.70;2252.80;;;;;;5092436;28;20031;-80
2021/10/21 06:18:33;;;;;;;157.25;109.10;;;179.40;2252.80;;;;;;5092539;28;20402;-79
2021/10/21 06:21:01;;;;;;;138.82;97.38;;;179.70;2252.80;;;;;;5093566;28;20085;-79
2021/10/21 06:23:27;;;;;;;128.45;92.03;;;179.90;2252.80;;;;;;5092340;28;20118;-79
2021/10/21 06:25:53;;;;;;;136.18;90.35;;;179.60;2252.80;;;;;;5096353;28;20031;-79
2021/10/21 06:28:19;;;;;;;115.20;85.75;;;179.70;2252.80;;;;;;5097807;28;20023;-80
2021/10/21 06:30:47;;;;;;;124.72;83.97;;;179.90;2252.80;;;;;;5096485;28;20024;-79
2021/10/21 06:33:13;;;;;;;139.95;95.53;;;179.80;2252.80;;;;;;5096616;28;20111;-81
2021/10/21 06:35:44;;;;;;;132.05;91.32;;;180.10;2252.80;;;;;;5096095;28;20044;-79
2021/10/21 06:38:10;;;;;;;133.23;90.30;;;180.10;2252.80;;;;;;5097588;28;20527;-82
2021/10/21 06:40:36;;;;;;;125.63;88.97;;;204.80;2252.80;;;;;;5096544;28;20460;-79
2021/10/21 06:43:02;;;;;;;123.55;87.40;;;204.80;2252.80;;;;;;5096179;28;20039;-81
2021/10/21 06:45:28;;;;;;;126.28;85.40;;;204.90;2252.80;;;;;;5096586;28;20028;-78
2021/10/21 06:47:54;;;;;;;142.30;107.25;;;205.10;2252.80;;;;;;5096399;28;20107;-78
2021/10/21 06:50:20;;;;;;;118.60;84.90;;;205.20;2252.80;;;;;;5096255;28;20474;-79
2021/10/21 06:52:48;;;;;;;105.22;76.70;;;205.20;2252.80;;;;;;5096194;28;20039;-81
2021/10/21 06:55:15;;;;;;;108.18;76.65;;;205.40;2252.80;;;;;;5096394;28;20372;-82
2021/10/21 06:57:58;;;;;;;186.35;134.23;;;205.60;2252.80;;;;;;5095941;28;20113;-80
2021/10/21 07:00:24;;;;;;;157.05;112.15;;;205.50;2252.80;;;;;;5096194;28;20491;-79
2021/10/21 07:02:51;;;;;;;153.70;113.28;;;205.60;2252.80;;;;;;5096050;28;20040;-79
2021/10/21 07:05:18;;;;;;;113.57;88.10;;;205.70;2252.80;;;;;;5095704;28;20028;-79
2021/10/21 07:07:44;;;;;;;107.22;79.90;;;205.60;2252.80;;;;;;5095926;28;20115;-79
2021/10/21 07:10:11;;;;;;;134.65;102.88;;;230.50;2252.80;;;;;;5096025;28;20036;-82
2021/10/21 07:12:38;;;;;;;120.05;89.45;;;230.50;2252.80;;;;;;5095314;28;20028;-79
2021/10/21 07:15:07;;;;;;;112.38;82.43;;;230.60;2252.80;;;;;;5096840;28;20024;-78
2021/10/21 07:17:33;;;;;;;126.55;89.05;;;230.80;2252.80;;;;;;5095625;28;20051;-81
2021/10/21 07:19:59;;;;;;;112.65;81.70;;;230.90;2252.80;;;;;;5095710;28;20111;-81
2021/10/21 07:22:25;;;;;;;125.18;95.97;;;231.00;2252.80;;;;;;5095818;28;20540;-80
2021/10/21 07:24:50;;;;;;;141.38;93.28;;;231.20;2252.80;;;;;;5095289;28;20028;-80
2021/10/21 07:27:17;;;;;;;125.53;93.97;;;231.30;2252.80;;;;;;5097288;28;20452;-79
2021/10/21 07:29:43;;;;;;;122.97;88.65;;;256.20;2252.80;;;;;;5095579;28;20153;-78
2021/10/21 07:32:09;;;;;;;114.93;87.13;;;256.40;2252.80;;;;;;5095309;28;20372;-78
2021/10/21 07:34:36;;;;;;;116.65;81.25;;;256.50;2252.80;;;;;;5095230;28;20130;-79
2021/10/21 07:37:02;;;;;;;136.45;93.10;;;256.70;2252.80;;;;;;5095204;28;20463;-76
2021/10/21 07:39:28;;;;;;;130.60;104.43;;;256.90;2252.80;;;;;;5095215;28;20035;-75
2021/10/21 07:42:00;;;;;;;159.23;135.27;;;281.60;2278.40;;;;;;5095333;28;20383;-75
2021/10/21 07:44:27;;;;;;;132.20;98.07;;;281.80;2278.40;;;;;;5096485;28;20023;-75
2021/10/21 07:46:53;;;;;;;117.57;90.80;;;282.00;2278.40;;;;;;5094990;28;20035;-74
2021/10/21 07:49:19;;;;;;;120.13;88.82;;;282.20;2278.40;;;;;;5095071;28;20027;-75
2021/10/21 07:51:45;;;;;;;122.03;84.88;;;282.40;2278.40;;;;;;5096293;28;20027;-75
2021/10/21 07:54:11;;;;;;;94.25;71.22;;;282.40;2278.40;;;;;;5094754;28;20379;-75
2021/10/21 07:56:37;;;;;;;94.07;72.57;;;282.50;2278.40;;;;;;5095098;28;20028;-75
2021/10/21 07:59:04;;;;;;;74.82;54.67;;;307.30;2304.00;;;;;;5094970;28;20032;-75
2021/10/21 08:01:29;;;;;;;63.20;47.65;;;307.40;2304.00;;;;;;5094611;28;20028;-75
2021/10/21 08:03:59;;;;;;;53.75;40.17;;;307.60;2304.00;;;;;;5094717;28;20070;-75
2021/10/21 08:06:24;;;;;;;44.60;35.90;;;307.60;2304.00;;;;;;5094736;28;20032;-75
2021/10/21 08:08:50;;;;;;;60.95;46.20;;;307.70;2304.00;;;;;;5095795;28;20033;-75
2021/10/21 08:11:16;;;;;;;50.67;40.83;;;307.90;2304.00;;;;;;5096586;28;20107;-74
2021/10/21 08:13:42;;;;;;;46.30;36.47;;;308.00;2304.00;;;;;;5095882;28;20525;-74
2021/10/21 08:16:08;;;;;;;43.95;33.80;;;308.00;2304.00;;;;;;5095806;28;20047;-76
2021/10/21 08:18:34;;;;;;;42.53;32.83;;;308.10;2304.00;;;;;;5095590;28;20365;-75
2021/10/21 08:21:03;;;;;;;46.95;35.30;;;332.80;2329.60;;;;;;5096416;28;20024;-76
2021/10/21 08:23:28;;;;;;;50.85;39.65;;;332.90;2329.60;;;;;;5097312;28;20460;-74
2021/10/21 08:25:54;;;;;;;51.97;36.17;;;333.10;2329.60;;;;;;5094908;28;20025;-74
2021/10/21 08:28:20;;;;;;;42.13;32.80;;;333.20;2329.60;;;;;;5096867;28;20024;-74
2021/10/21 08:30:46;;;;;;;41.67;33.17;;;333.30;2329.60;;;;;;5095002;28;20035;-75
2021/10/21 08:33:13;;;;;;;42.70;32.45;;;333.50;2329.60;;;;;;5096449;28;20102;-74
2021/10/21 08:35:39;;;;;;;42.53;33.88;;;333.60;2329.60;;;;;;5093901;28;20047;-75
2021/10/21 08:38:06;;;;;;;42.25;34.15;;;333.70;2329.60;;;;;;5095510;28;20027;-75
2021/10/21 08:40:33;;;;;;;42.75;34.75;;;358.40;2329.60;;;;;;5094312;28;20421;-75
2021/10/21 08:43:01;;;;;;;44.10;32.25;;;358.50;2329.60;;;;;;5093938;28;20032;-74
2021/10/21 08:45:27;;;;;;;42.65;33.80;;;358.70;2329.60;;;;;;5095532;28;20028;-75
2021/10/21 08:48:02;;;;;;;49.10;35.97;;;358.70;2329.60;;;;;;5093247;28;20038;-75
2021/10/21 08:50:30;;;;;;;44.20;34.85;;;358.80;2329.60;;;;;;5093639;28;20035;-76
2021/10/21 08:52:55;;;;;;;37.75;31.08;;;358.90;2329.60;;;;;;5093835;28;20035;-74
2021/10/21 08:55:21;;;;;;;36.95;28.38;;;359.00;2329.60;;;;;;5093733;28;20380;-74
2021/10/21 08:57:48;;;;;;;39.10;28.40;;;359.10;2329.60;;;;;;5093369;28;20032;-74
2021/10/21 09:00:14;;;;;;;35.55;27.77;;;359.20;2329.60;;;;;;5094916;28;20024;-74
2021/10/21 09:02:50;;;;;;;32.17;27.10;;;384.00;2329.60;;;;;;5094458;28;20375;-74
2021/10/21 09:07:57;;;;;;;28.60;23.42;;;384.30;2329.60;;;;;;5095161;28;20039;-74
2021/10/21 09:10:23;;;;;;;27.85;22.60;;;384.60;2329.60;;;;;;5094523;28;20173;-75
2021/10/21 09:12:50;;;;;;;26.98;21.10;;;384.60;2329.60;;;;;;5093410;28;20418;-74
2021/10/21 09:15:25;;;;;;;25.48;19.40;;;384.70;2329.60;;;;;;5093332;28;20031;-74
2021/10/21 09:17:53;;;;;;;35.72;31.35;;;384.90;2329.60;;;;;;5093134;28;20024;-74
2021/10/21 09:20:21;;;;;;;29.92;25.55;;;409.60;2355.20;;;;;;5093184;28;20020;-76
2021/10/21 09:22:55;;;;;;;23.85;19.83;;;409.70;2355.20;;;;;;5093009;28;20111;-75
2021/10/21 09:25:28;;;;;;;26.85;23.80;;;409.70;2355.20;;;;;;5093043;28;20379;-75
2021/10/21 09:27:58;;;;;;;26.55;22.33;;;409.80;2355.20;;;;;;5093054;28;20028;-74
2021/10/21 09:30:29;;;;;;;21.52;18.98;;;410.00;2355.20;;;;;;5094461;28;20032;-76
2021/10/21 09:33:01;;;;;;;22.92;17.55;;;410.20;2355.20;;;;;;5093089;28;20028;-74
2021/10/21 09:35:27;;;;;;;23.45;16.73;;;410.20;2355.20;;;;;;5092563;28;20082;-75
2021/10/21 09:37:56;;;;;;;27.15;20.52;;;410.30;2355.20;;;;;;5092726;28;20059;-76
2021/10/21 09:40:28;;;;;;;20.02;16.73;;;410.50;2355.20;;;;;;5092977;28;20024;-76
2021/10/21 09:43:00;;;;;;;21.10;17.08;;;435.20;2355.20;;;;;;5093039;28;20118;-75
2021/10/21 09:45:35;;;;;;;21.63;17.50;;;435.20;2355.20;;;;;;5093482;28;20028;-76
2021/10/21 09:48:03;;;;;;;21.52;16.20;;;435.20;2355.20;;;;;;5092878;28;20024;-77
2021/10/21 09:50:34;;;;;;;27.55;20.60;;;435.60;2355.20;;;;;;5092358;28;20031;-76
2021/10/21 09:53:10;;;;;;;22.50;17.25;;;435.60;2355.20;;;;;;5093686;28;20062;-76
2021/10/21 09:55:38;;;;;;;20.10;15.35;;;435.60;2355.20;;;;;;5093917;28;20056;-76
2021/10/21 09:58:06;;;;;;;24.30;19.17;;;435.60;2355.20;;;;;;5093986;28;20391;-77
2021/10/21 10:00:35;;;;;;;18.83;15.95;;;435.80;2355.20;;;;;;5092335;28;20036;-76
2021/10/21 10:03:14;;;;;;;21.67;17.48;;;436.00;2355.20;;;;;;5092519;28;20038;-75
2021/10/21 10:05:54;;;;;;;33.67;23.83;;;436.10;2355.20;;;;;;5093580;28;20042;-77
2021/10/21 10:08:21;;;;;;;23.73;17.83;;;436.10;2355.20;;;;;;5092613;28;20444;-78
2021/10/21 10:10:50;;;;;;;28.92;20.23;;;460.80;2380.80;;;;;;5092710;28;20353;-76
2021/10/21 10:13:17;;;;;;;27.00;20.95;;;460.80;2380.80;;;;;;5092211;28;20051;-76
2021/10/21 10:15:45;;;;;;;22.48;16.98;;;460.90;2380.80;;;;;;5092448;28;20498;-76
2021/10/21 10:18:22;;;;;;;24.52;20.42;;;461.20;2380.80;;;;;;5092494;28;20109;-76
2021/10/21 10:21:25;;;;;;;27.75;21.63;;;461.20;2380.80;;;;;;5092114;28;20048;-76
2021/10/21 10:23:58;;;;;;;25.70;22.42;;;461.40;2380.80;;;;;;5092462;28;20028;-76
2021/10/21 10:26:42;;;;;;;;;;;461.30;2380.80;;;;;;5093758;28;20089;-77
2021/10/21 10:29:08;;;;;;;23.85;16.15;;;461.50;2380.80;;;;;;5092356;28;20014;-81
2021/10/21 10:31:48;;;;;;;27.42;19.92;;;461.60;2380.80;;;;;;5092362;28;20464;-77
2021/10/21 10:34:40;;;;;;;14.18;11.50;;;461.50;2380.80;;;;;;5092962;28;20385;-76
2021/10/21 10:37:12;;;;;;;19.10;10.40;;;486.40;2380.80;;;;;;5083917;28;20036;-77
2021/10/21 10:39:58;;;;;;;13.10;10.13;;;486.60;2380.80;;;;;;5092340;28;20024;-76
2021/10/21 10:42:37;;;;;;;27.48;17.65;;;486.50;2380.80;;;;;;5091913;28;20032;-76
2021/10/21 10:45:06;;;;;;;19.40;13.73;;;486.60;2380.80;;;;;;5091275;28;20523;-78
2021/10/21 10:47:53;;;;;;;21.13;11.45;;;487.00;2380.80;;;;;;5091008;28;20032;-77
2021/10/21 10:50:22;;;;;;;16.10;9.02;;;487.00;2380.80;;;;;;5124157;28;20028;-76
2021/10/21 10:52:59;;;;;;;21.10;14.55;;;487.10;2329.60;;;;;;5091879;28;20024;-76
2021/10/21 10:55:39;;;;;;;23.13;13.45;;;487.30;2304.00;;;;;;5091943;28;20039;-75
2021/10/21 10:58:07;;;;;;;19.95;10.93;;;512.10;2329.60;;;;;;5092254;28;20384;-75
2021/10/21 11:00:48;;;;;;;17.52;10.90;;;512.40;2304.00;;;;;;5091810;28;20032;-75
2021/10/21 11:03:32;;;;;;;12.45;8.25;;;512.60;2252.80;;;;;;5091729;28;20092;-76
2021/10/21 11:05:58;;;;;;;27.52;14.85;;;512.70;2252.80;;;;;;5091868;28;20455;-75
2021/10/21 11:08:52;;;;;;;22.83;12.70;;;512.70;2227.20;;;;;;5091996;28;20123;-75
2021/10/21 11:11:59;;;;;;;15.77;11.65;;;512.70;2278.40;;;;;;5093577;28;20020;-77
2021/10/21 11:14:31;;;;;;;24.38;13.38;;;512.90;2227.20;;;;;;5095874;28;20035;-76
2021/10/21 11:16:58;;;;;;;17.58;11.15;;;537.80;2227.20;;;;;;5096814;28;20024;-75
2021/10/21 11:19:42;;;;;;;25.88;15.57;;;538.10;2176.00;;;;;;5095595;28;20038;-76
2021/10/21 11:22:08;;;;;;;23.92;14.60;;;538.40;2176.00;;;;;;5095650;28;20025;-78
2021/10/21 11:24:53;;;;;;;15.88;11.57;;;538.50;2176.00;;;;;;5095337;28;20040;-77
2021/10/21 11:27:24;;;;;;;19.55;12.05;;;563.30;2176.00;;;;;;5097251;28;20020;-77
2021/10/21 11:29:51;;;;;;;20.73;13.65;;;563.50;2150.40;;;;;;5096790;28;20050;-77
2021/10/21 11:32:17;;;;;;;15.60;11.32;;;563.70;2124.80;;;;;;5095516;28;20031;-76
2021/10/21 11:34:48;;;;;;;18.95;11.50;;;563.90;2073.60;;;;;;5094913;28;20067;-78
2021/10/21 11:37:14;;;;;;;20.08;11.32;;;564.00;2048.00;;;;;;5095170;28;20024;-77
2021/10/21 11:39:41;;;;;;;18.48;12.07;;;564.00;2048.00;;;;;;5095544;28;20141;-77
2021/10/21 11:42:10;;;;;;;18.42;10.95;;;564.10;2048.00;;;;;;5096587;28;20024;-77
2021/10/21 11:44:37;;;;;;;18.90;11.80;;;564.10;2048.00;;;;;;5094917;28;20085;-78
2021/10/21 11:47:06;;;;;;;17.10;9.45;;;588.80;2022.40;;;;;;5095206;28;20599;-78
2021/10/21 11:49:37;;;;;;;17.13;10.00;;;564.10;2022.40;;;;;;5096433;28;20031;-77
2021/10/21 11:52:08;;;;;;;20.25;12.13;;;564.10;1996.80;;;;;;5095646;28;20032;-78
2021/10/21 11:54:35;;;;;;;13.57;9.27;;;589.00;2022.40;;;;;;5098009;28;20054;-76
2021/10/21 11:57:01;;;;;;;13.25;7.72;;;589.00;1996.80;;;;;;5096202;28;20021;-76
2021/10/21 11:59:40;;;;;;;16.33;11.68;;;588.90;1971.20;;;;;;5095122;28;20069;-76
2021/10/21 12:02:29;;;;;;;15.73;9.77;;;589.30;1971.20;;;;;;5095904;28;20024;-77